Terrytown, Nebraska
Current Conditions -  °F | °C
As of 1:53 PM on Thursday 23 Oct 2014 (Local Time) from KBFF Reporting Station
Clear Clear  
Wind Chill: 74°   Ceiling: Unl
Heat Index: 74°   Visibility: 10mi
Dew Point: 33°   Wind: 17mph
Humidity: 22%   Direction: 290°WNW
Pressure: 30.01"   Gusts: 25mph
Location:  41.7826°N, 103.681°W
Report Text: KBFF 231953Z AUTO 29015G22KT 10SM CLR 23/01 A3001 RMK AO2 SLP143 T02330006
Loading
Personal Weather Stations






























Interactive Weather Map
Tropical Storm Tracking
New forecast layout! Learn more

10-Day Weather Forecast

Advertisements
Track Severe Weather on mobile